Geraldton Greenstone Regional Airport
CYGQ : now visible

Airfield :











YOU CAN JOIN US ON...

 
LOGIN :

Register | Disclaimer

   EN    FR    IT 

 









Legend :    VFR   Marginal VFR   IFR   Intensive IFR   Very Intensive IFR
Visi :
Ceiling :
>= 8 km
>= 3000ft
5 to 8 km
1000 to 3000 ft
1500m to 5 km
500 to 1000 ft
800 to 1500m
200 to 500 ft
< 800m
< 200 ft
Symbols :   Thunderstorms  Fog  Heavy snow  Heavy precipitations  Wind > 20 kt






- Airport Elevation : 1144 ft
- IATA code : YGQ


CYGQ - Geraldton Greenstone Regional

CURRENT METAR :
  • 261800Z 24007KT 210V290 15SM SCT065 OVC075 M03/M10 A3018 RMK SC4AC4 SLP247

EXPIRED METARs :
  • 261700Z 24006KT 210V320 15SM SCT056 BKN080 M04/M10 A3020 RMK SC4AC3 SLP251
  • 261600Z 24005KT 210V280 15SM OVC082 M04/M09 A3020 RMK AC8 SLP253

TAF TAF CYGQ
Valid from the 26 at 14:00 until the 27 at 02:00 UTC


261341Z 2614/2702 23005KT P6SM BKN070
FM261700 27010KT P6SM BKN030
TEMPO 2617/2702 5SM -SHSN
BECMG 2622/2624 23006KT RMK NXT FCST BY 262000Z
CZWG FIR / North America



MET'MAP, your aeronautical weather chart ! - Copyright ORBIFLY December 2007 - Disclaimer

ORBIFLY MET'MAP TEAM :

Programming & Development : Alexandra Zaïnal
Concept & original design : Baudouin d'Aumeries
Assistance for programming : Marc-Olivier Méhu
Technical & hardware support : Manuel Goepfert

Contact : metmap@orbifly.com




SOURCES & CREDITS :

   NOAA       Earth
Advisory